Hlavní strana
METAR-TAF:

METAR-TAF

Letiště :

Troy, Alabama, Spojené státy americké

zeměpisná šířka: 31-51-38N, zeměpisná délka: 086-00-44W, výška: 121 m

Aktuální stav počasí

Zpráva byla vytvořena před 1 hodinou a 2 minutami, v 10:53 UTC
Bezvětří
Teplota 19°C
Vlhkost vzduchu 94%
Tlak 1022 hPa
Viditelnost: 12.9 km
Jasno

METAR: KTOI 241053Z AUTO 00000KT 8SM CLR 19/18 A3017 RMK AO2 SLP212 T01940183

Čas: 06:55 (11:55 UTC)

Předpověď počasí

Zpráva byla vytvořena před 29 minutami, v 11:26 UTC
Předpověď platná od 24 v 12 UTC do 25 v 12 UTC
vítr z různých směrů 5 kt
Viditelnost: 10 km
Polojasno ve výšce 6000 ft
Od 25 v 0100 UTC
Severní vítr kt
Viditelnost: 10 km
Jasno

TAF: KTOI 241126Z 2412/2512 VRB05KT P6SM SCT060 FM250100 00000KT P6SM SKC

Stav a předpovědi počasí z více než 4 000 letišť (zprávy METAR a TAF).

Červené a žluté tečky na mapě představují dostupné meteorologické stanice.

Když kurzor umístíte na tečku, zobrazí se název stanice.

Pak kliknutím zobrazíte stav a předpověď počasí.

Chcete-li změnit mapu, kliknutím na zelené tlačítko se znaménkem +mapu přiblížíte, kliknutím na zelené tlačítko se znaménkem – mapu oddálíte a kliknutím na zelené šipky přejdete na sousední mapy.


METAR-TAF: